Share

Simon Bolivar, Colombia

Playa Salguero (IMAGDALE2) Alt 0 ft | 11.19 °N, 74.23 °W | Change Station

Current weather conditions updated 3 seconds ago

Clear
Despejado
85.4 ° F
Sensación térmica 92 ° F
N
7.0
Viento Variable Viento desde ENE
Gusts 20.0 mph
Amanecer 5:44 AM
Atardecer 6:08 PM
Luna Gibosa menguante

Mañana se prevé un día Más frío que hoy. Tormentas dispersas. tomorrow night.

Presión 29.80 pul
Visibilidad -9999.0 Millas
Nubes
Índice de calor 92 ° F
Punto de rocío 73 ° F
Humedad 66%
Precipitaciones 0.00 pul
Espesor de la nieve No disponible.
UV No disponible.
Polen No disponible.
Calidad del aire No disponible.
Flu Activity No disponible.
METAR SKBQ 190400Z 03008KT CAVOK 26/24 A2980

More Conditions Fewer Conditions

Presión 29.80 pul
Visibilidad -9999.0 Millas
Nubes
Índice de calor 92 ° F
Punto de rocío 73 ° F
Humedad 66%
Precipitaciones 0.00 pul
Espesor de la nieve No disponible.
UV No disponible.
Polen No disponible.
Calidad del aire No disponible.
Flu Activity No disponible.
METAR SKBQ 190400Z 03008KT CAVOK 26/24 A2980

More Conditions Fewer Conditions

10-Day Weather Forecast

Almanac

Astronomía

Apr. 18, 2014 Salida Puesta
Hora real 5:44 AM COT 6:08 PM COT
Crepúsculo civil 5:22 AM COT 6:29 PM COT
Crepúsculo náutico 4:57 AM COT 6:55 PM COT
Crepúsculo astronómico 4:32 AM COT 7:20 PM COT
Luna 9:27 PM COT (4/18) 8:26 AM COT (4/18)
Horas de luz 13h 07m
Horas de luz
12h 24m
Tomorrow will be 0m 36s longer.
Gibosa menguante, 83% of the Moon is Illuminated
Abr 19
Gibosa menguante
Abr 22
Cuarto menguante
Abr 29
Nueva
May 6
Cuarto creciente
May 14
Luna llena

Extremos de hoy

Máximos del país Bajas del país

Community

  • Sunset Silhouettes
    Sunset Silhouettes
  • FL sunset Perico Isle
    FL sunset Perico Isle
  • Cloudy spring view
    Cloudy spring view
  • Old barn
    Old barn
  • What's for Lunch?
    What's for Lunch?

WunderPhotos

Upload Photos

1,702,639 ¡fotos cargadas!

WunderBlogs® & News

Nearby

Calidad del aire

Not available.

Grosos de nieve

Not available.

Temperaturas de aguas costeras

Lugar Temperatura
Sin partes meteorológicos de las estaciones

Actividad de terremotos

Ciudad Distance Mag. Tiempo y dato
No hay informes recientes de la actividad sísmica.
Magnitud mínima muestra es 2,5.

Estaciones meteorológicas cercanas

Ubicación de la estación Temp. Índice de calor Punto de rocío Humedad Viento Precip. Alt Actualizado Tipo
Playa Salguero, Rodadero Sur Santa Marta 85.4 ° F 92 ° F 73 ° F 66% ENE  a  7.0 mph 0.00 pul / hr 0 ft 11:31 PM COT Rapid Fire

Show More Stations Show Fewer Stations

What do you think?

We're not finished. Please let us know what you like, what you don't like, and what you are still missing.